createdAt,value
2023-01-01T00:01:42.737Z,1.02
2023-01-01T00:04:12.536Z,1.15
2023-01-01T00:06:39.563Z,3.58
2023-01-01T00:09:25.282Z,3.55
2023-01-01T00:11:52.277Z,3.67
2023-01-01T00:14:19.215Z,4.28
2023-01-01T00:16:46.241Z,3.83
2023-01-01T00:19:13.189Z,2.90
2023-01-01T00:21:40.759Z,2.85
2023-01-01T00:24:07.900Z,1.75
2023-01-01T00:26:35.712Z,1.98
2023-01-01T00:29:02.721Z,2.88
2023-01-01T00:31:29.761Z,2.10
2023-01-01T00:33:56.989Z,1.80
2023-01-01T00:36:26.112Z,1.40
2023-01-01T00:38:53.071Z,1.25
2023-01-01T00:41:20.149Z,1.17
2023-01-01T00:43:47.198Z,1.30
2023-01-01T00:46:14.457Z,0.90
2023-01-01T00:48:41.453Z,0.65
2023-01-01T00:51:08.391Z,0.60
2023-01-01T00:53:35.856Z,0.90
2023-01-01T00:56:02.908Z,1.15
2023-01-01T00:58:29.834Z,0.70
2023-01-01T01:00:58.815Z,1.70
2023-01-01T01:03:28.412Z,0.60
2023-01-01T01:05:59.296Z,0.77
2023-01-01T01:08:30.659Z,0.50
2023-01-01T01:11:05.901Z,0.93
2023-01-01T01:13:32.929Z,0.77
2023-01-01T01:16:00.833Z,1.05
2023-01-01T01:18:27.769Z,0.70
2023-01-01T01:20:55.131Z,1.00
2023-01-01T01:23:22.031Z,0.80
2023-01-01T01:25:49.072Z,0.65
2023-01-01T01:28:15.952Z,0.93
2023-01-01T01:30:43.014Z,0.85
2023-01-01T01:33:10.024Z,0.75
2023-01-01T01:35:37.020Z,0.38
2023-01-01T01:38:03.973Z,0.60
2023-01-01T01:40:30.939Z,0.80
2023-01-01T01:42:57.908Z,0.60
2023-01-01T01:45:29.737Z,1.17
2023-01-01T01:47:59.992Z,1.65
2023-01-01T01:50:34.605Z,1.20
2023-01-01T01:53:13.479Z,1.00
2023-01-01T01:55:45.331Z,1.15
2023-01-01T01:58:12.321Z,1.08
2023-01-01T02:00:39.270Z,0.93
2023-01-01T02:03:08.418Z,1.90
2023-01-01T02:05:35.650Z,1.25
2023-01-01T02:08:04.055Z,1.20
2023-01-01T02:10:30.982Z,0.80
2023-01-01T02:12:57.859Z,0.88
2023-01-01T02:15:26.841Z,1.00
2023-01-01T02:18:01.306Z,1.02
2023-01-01T02:20:48.517Z,0.50
2023-01-01T02:23:30.339Z,1.40
2023-01-01T02:26:03.262Z,0.90
2023-01-01T02:28:58.597Z,0.83
2023-01-01T02:31:29.981Z,0.85
2023-01-01T02:34:01.971Z,0.95
2023-01-01T02:36:28.933Z,0.88
2023-01-01T02:38:56.209Z,1.13
2023-01-01T02:41:28.925Z,1.20
2023-01-01T02:48:52.096Z,0.40
2023-01-01T02:51:40.064Z,1.23
2023-01-01T02:54:18.960Z,1.52
2023-01-01T02:57:06.371Z,0.80
2023-01-01T02:59:53.597Z,0.68
2023-01-01T03:02:23.303Z,1.00
2023-01-01T03:04:50.506Z,1.05
2023-01-01T03:07:39.405Z,0.82
2023-01-01T03:10:17.754Z,0.80
2023-01-01T03:12:56.133Z,0.80
2023-01-01T03:15:34.694Z,1.00
2023-01-01T03:18:26.082Z,1.52
2023-01-01T03:20:54.791Z,1.13
2023-01-01T03:23:25.448Z,0.77
2023-01-01T03:25:53.421Z,0.95
2023-01-01T03:28:25.879Z,1.55
2023-01-01T03:30:53.231Z,0.75
2023-01-01T03:33:47.526Z,1.35
2023-01-01T03:36:25.136Z,2.17
2023-01-01T03:39:02.174Z,1.85
2023-01-01T03:41:41.018Z,0.95
2023-01-01T03:44:27.786Z,1.35
2023-01-01T03:46:54.703Z,1.75
2023-01-01T03:49:21.729Z,0.88
2023-01-01T03:52:46.095Z,1.63
2023-01-01T03:55:33.180Z,1.50
2023-01-01T03:58:03.716Z,1.77
2023-01-01T04:00:58.292Z,1.35
2023-01-01T04:03:26.722Z,1.65
2023-01-01T04:05:56.729Z,1.27
2023-01-01T04:08:23.736Z,1.77
2023-01-01T04:10:58.163Z,1.33
2023-01-01T04:13:25.150Z,1.00
2023-01-01T04:15:52.182Z,1.40
2023-01-01T04:18:19.206Z,1.27
2023-01-01T04:20:46.138Z,1.00
2023-01-01T04:23:13.189Z,1.52
2023-01-01T04:25:40.164Z,0.63
2023-01-01T04:28:07.080Z,1.15
2023-01-01T04:33:00.698Z,1.10
2023-01-01T04:35:30.397Z,1.08
2023-01-01T04:37:59.474Z,0.70
2023-01-01T04:40:26.446Z,0.80
2023-01-01T04:42:54.605Z,2.28
2023-01-01T04:45:21.581Z,2.05
2023-01-01T04:47:48.791Z,1.60
2023-01-01T04:50:15.743Z,1.00
2023-01-01T04:52:42.670Z,1.92
2023-01-01T04:55:09.732Z,1.33
2023-01-01T04:57:36.690Z,1.67
2023-01-01T05:00:04.136Z,1.10
2023-01-01T05:02:31.159Z,1.45
2023-01-01T05:04:58.118Z,1.63
2023-01-01T05:07:25.079Z,2.05
2023-01-01T05:09:52.004Z,1.25
2023-01-01T05:12:19.275Z,1.30
2023-01-01T05:14:46.137Z,1.83
2023-01-01T05:17:13.102Z,1.55
2023-01-01T05:19:40.957Z,1.45
2023-01-01T05:22:10.819Z,1.67
2023-01-01T05:24:38.360Z,1.48
2023-01-01T05:27:05.399Z,1.55
2023-01-01T05:29:32.326Z,1.63
2023-01-01T05:31:59.329Z,1.50
2023-01-01T05:34:27.081Z,1.80
2023-01-01T05:36:54.060Z,1.80
2023-01-01T05:39:20.919Z,1.00
2023-01-01T05:41:47.979Z,0.80
2023-01-01T05:44:16.759Z,1.48
2023-01-01T05:46:43.698Z,1.25
2023-01-01T05:49:11.831Z,1.63
2023-01-01T05:54:04.683Z,1.45
2023-01-01T05:56:31.792Z,1.80
2023-01-01T05:58:58.742Z,1.40
2023-01-01T06:01:29.766Z,1.15
2023-01-01T06:03:57.428Z,1.35
2023-01-01T06:06:26.191Z,1.42
2023-01-01T06:08:57.643Z,0.80
2023-01-01T06:11:24.878Z,1.27
2023-01-01T06:13:55.837Z,1.73
2023-01-01T06:16:23.036Z,1.55
2023-01-01T06:18:50.108Z,0.63
2023-01-01T06:21:18.502Z,1.75
2023-01-01T06:23:45.498Z,0.98
2023-01-01T06:26:14.382Z,1.40
2023-01-01T06:28:43.967Z,2.15
2023-01-01T06:31:12.981Z,1.50
2023-01-01T06:33:40.315Z,1.55
2023-01-01T06:36:09.118Z,1.45
2023-01-01T06:38:36.938Z,1.45
2023-01-01T06:41:17.588Z,1.75
2023-01-01T06:43:44.693Z,2.08
2023-01-01T06:46:23.333Z,2.00
2023-01-01T06:48:51.627Z,1.65
2023-01-01T06:51:22.942Z,1.42
2023-01-01T06:53:50.321Z,1.75
2023-01-01T06:56:17.533Z,1.90
2023-01-01T06:58:44.494Z,1.80
2023-01-01T07:01:17.311Z,1.20
2023-01-01T07:03:44.516Z,2.00
2023-01-01T07:06:11.523Z,1.83
2023-01-01T07:08:38.464Z,1.73
2023-01-01T07:11:05.450Z,1.42
2023-01-01T07:13:34.826Z,2.17
2023-01-01T07:16:06.841Z,1.92
2023-01-01T07:18:40.696Z,1.58
2023-01-01T07:21:24.977Z,1.30
2023-01-01T07:23:58.618Z,2.13
2023-01-01T07:26:26.024Z,1.55
2023-01-01T07:28:52.984Z,2.38
2023-01-01T07:31:20.166Z,1.52
2023-01-01T07:33:47.258Z,2.05
2023-01-01T07:36:14.181Z,1.92
2023-01-01T07:38:41.253Z,1.52
2023-01-01T07:41:08.183Z,2.25
2023-01-01T07:43:35.105Z,1.50
2023-01-01T07:46:02.162Z,2.50
2023-01-01T07:48:30.511Z,1.60
2023-01-01T07:51:00.254Z,2.35
2023-01-01T07:53:27.310Z,1.23
2023-01-01T07:55:54.162Z,2.53
2023-01-01T07:58:23.029Z,1.45
2023-01-01T08:00:49.899Z,2.25
2023-01-01T08:03:16.938Z,2.92
2023-01-01T08:05:43.866Z,1.92
2023-01-01T08:08:11.044Z,1.77
2023-01-01T08:10:37.961Z,1.75
2023-01-01T08:13:05.860Z,2.17
2023-01-01T08:15:33.008Z,1.60
2023-01-01T08:18:00.844Z,2.17
2023-01-01T08:20:28.432Z,2.30
2023-01-01T08:22:57.309Z,1.25
2023-01-01T08:25:27.148Z,1.98
2023-01-01T08:27:55.388Z,2.75
2023-01-01T08:30:22.339Z,1.67
2023-01-01T08:32:49.282Z,2.05
2023-01-01T08:35:16.304Z,2.00
2023-01-01T08:37:43.165Z,1.83
2023-01-01T08:40:11.890Z,1.95
2023-01-01T08:42:41.812Z,2.35
2023-01-01T08:45:09.138Z,1.85
2023-01-01T08:47:36.014Z,2.17
2023-01-01T08:50:02.921Z,3.17
2023-01-01T08:52:29.871Z,1.92
2023-01-01T08:54:56.751Z,2.33
2023-01-01T08:57:23.885Z,2.25
2023-01-01T08:59:50.892Z,1.95
2023-01-01T09:02:17.897Z,2.25
2023-01-01T09:04:44.962Z,1.58
2023-01-01T09:07:11.842Z,1.92
2023-01-01T09:09:38.759Z,1.63
2023-01-01T09:12:06.550Z,1.52
2023-01-01T09:14:33.885Z,2.90
2023-01-01T09:17:00.842Z,1.95
2023-01-01T09:19:27.805Z,1.60
2023-01-01T09:21:54.761Z,2.20
2023-01-01T09:24:21.751Z,1.85
2023-01-01T09:26:48.729Z,1.10
2023-01-01T09:29:20.749Z,1.88
2023-01-01T09:31:50.903Z,2.50
2023-01-01T09:34:18.211Z,1.58
2023-01-01T09:36:45.858Z,2.30
2023-01-01T09:39:13.571Z,2.42
2023-01-01T09:42:03.304Z,2.08
2023-01-01T09:44:39.834Z,1.73
2023-01-01T09:47:10.744Z,2.20
2023-01-01T09:49:40.184Z,2.63
2023-01-01T09:52:07.097Z,2.05
2023-01-01T09:54:37.444Z,2.13
2023-01-01T09:57:07.061Z,3.00
2023-01-01T09:59:34.001Z,2.33
2023-01-01T10:02:40.543Z,2.50
2023-01-01T10:05:38.332Z,2.08
2023-01-01T10:08:19.627Z,1.45
2023-01-01T10:11:10.488Z,2.15
2023-01-01T10:13:42.639Z,2.05
2023-01-01T10:16:37.464Z,3.13
2023-01-01T10:19:31.730Z,1.63
2023-01-01T10:22:03.117Z,1.92
2023-01-01T10:24:32.958Z,2.38
2023-01-01T10:26:59.903Z,2.80
2023-01-01T10:29:48.734Z,2.00
2023-01-01T10:32:20.933Z,2.22
2023-01-01T10:34:48.281Z,2.90
2023-01-01T10:37:19.084Z,3.53
2023-01-01T10:39:46.115Z,2.38
2023-01-01T10:42:15.375Z,1.92
2023-01-01T10:44:42.393Z,3.90
2023-01-01T10:47:35.551Z,3.78
2023-01-01T10:50:07.768Z,2.72
2023-01-01T10:52:41.068Z,1.58
2023-01-01T10:55:20.244Z,2.13
2023-01-01T10:57:47.120Z,1.50
2023-01-01T11:00:22.758Z,2.47
2023-01-01T11:03:11.639Z,1.83
2023-01-01T11:05:38.608Z,1.60
2023-01-01T11:08:19.065Z,2.70
2023-01-01T11:10:51.155Z,1.75
2023-01-01T11:13:19.559Z,1.90
2023-01-01T11:15:46.707Z,1.98
2023-01-01T11:18:14.553Z,2.13
2023-01-01T11:20:59.028Z,2.03
2023-01-01T11:23:37.045Z,2.25
2023-01-01T11:26:14.175Z,1.85
2023-01-01T11:28:58.455Z,2.35
2023-01-01T11:31:26.728Z,1.52
2023-01-01T11:33:54.464Z,2.40
2023-01-01T11:36:22.228Z,1.55
2023-01-01T11:39:20.157Z,1.65
2023-01-01T11:41:48.274Z,2.15
2023-01-01T11:44:44.732Z,1.20
2023-01-01T11:47:38.533Z,1.77
2023-01-01T11:50:14.260Z,1.35
2023-01-01T11:52:42.854Z,1.48
2023-01-01T11:55:33.062Z,2.55
2023-01-01T11:58:20.124Z,1.90
2023-01-01T12:00:48.205Z,1.90
2023-01-01T12:03:33.092Z,2.45
2023-01-01T12:06:09.142Z,1.50
2023-01-01T12:08:42.633Z,1.73
2023-01-01T12:11:26.331Z,2.20
2023-01-01T12:14:30.919Z,1.42
2023-01-01T12:17:19.286Z,2.33
2023-01-01T12:20:12.211Z,2.00
2023-01-01T12:22:40.304Z,1.17
2023-01-01T12:25:07.633Z,2.03
2023-01-01T12:27:57.424Z,1.75
2023-01-01T12:30:49.909Z,1.98
2023-01-01T12:33:16.915Z,2.60
2023-01-01T12:36:10.572Z,1.88
2023-01-01T12:38:37.423Z,1.73
2023-01-01T12:41:13.693Z,2.35
2023-01-01T12:43:55.850Z,3.38
2023-01-01T12:46:43.729Z,1.98
2023-01-01T12:49:23.694Z,1.63
2023-01-01T12:52:13.744Z,2.28
2023-01-01T12:55:17.545Z,1.92
2023-01-01T12:58:00.844Z,1.70
2023-01-01T13:00:27.774Z,1.00
2023-01-01T13:02:58.176Z,1.65
2023-01-01T13:05:44.501Z,1.33
2023-01-01T13:08:11.481Z,1.50
2023-01-01T13:10:41.032Z,1.77
2023-01-01T13:13:11.861Z,2.00
2023-01-01T13:15:43.530Z,1.70
2023-01-01T13:18:13.622Z,2.05
2023-01-01T13:20:44.751Z,2.08
2023-01-01T13:23:35.100Z,2.30
2023-01-01T13:26:21.000Z,2.53
2023-01-01T13:29:00.799Z,1.95
2023-01-01T13:31:42.720Z,3.25
2023-01-01T13:34:35.618Z,2.28
2023-01-01T13:37:12.841Z,3.28
2023-01-01T13:39:58.588Z,1.67
2023-01-01T13:43:00.709Z,2.00
2023-01-01T13:48:43.835Z,2.38
2023-01-01T13:52:04.238Z,1.80
2023-01-01T13:54:49.603Z,1.50
2023-01-01T13:57:43.757Z,2.20
2023-01-01T14:00:33.547Z,1.58
2023-01-01T14:03:08.236Z,2.15
2023-01-01T14:05:42.829Z,1.45
2023-01-01T14:08:32.734Z,2.67
2023-01-01T14:11:16.935Z,1.10
2023-01-01T14:16:14.737Z,1.52
2023-01-01T14:18:53.095Z,1.30
2023-01-01T14:21:21.818Z,1.95
2023-01-01T14:24:02.162Z,2.03
2023-01-01T14:26:29.348Z,2.47
2023-01-01T14:29:00.038Z,2.15
2023-01-01T14:31:29.595Z,1.63
2023-01-01T14:33:56.604Z,1.63
2023-01-01T14:36:26.722Z,0.93
2023-01-01T14:38:57.002Z,1.60
2023-01-01T14:41:33.278Z,1.73
2023-01-01T14:44:20.715Z,1.27
2023-01-01T14:46:49.224Z,2.00
2023-01-01T14:49:24.585Z,1.65
2023-01-01T14:51:55.637Z,1.83
2023-01-01T14:54:22.973Z,2.35
2023-01-01T14:56:50.920Z,1.63
2023-01-01T14:59:24.661Z,1.42
2023-01-01T15:02:04.134Z,1.80
2023-01-01T15:04:31.406Z,1.75
2023-01-01T15:06:59.986Z,1.42
2023-01-01T15:09:30.724Z,2.30
2023-01-01T15:11:58.283Z,2.08
2023-01-01T15:14:42.568Z,1.95
2023-01-01T15:17:10.787Z,1.80
2023-01-01T15:19:41.321Z,1.98
2023-01-01T15:22:23.168Z,2.15
2023-01-01T15:24:50.131Z,1.80
2023-01-01T15:27:27.320Z,2.08
2023-01-01T15:29:56.602Z,1.98
2023-01-01T15:32:38.151Z,1.98
2023-01-01T15:35:07.697Z,1.50
2023-01-01T15:38:08.026Z,2.33
2023-01-01T15:40:35.260Z,1.58
2023-01-01T15:43:02.283Z,1.55
2023-01-01T15:45:35.290Z,1.75
2023-01-01T15:48:05.337Z,2.35
2023-01-01T15:51:02.379Z,2.25
2023-01-01T15:53:46.475Z,2.03
2023-01-01T15:58:52.708Z,2.78
2023-01-01T16:01:21.843Z,3.17
2023-01-01T16:03:52.504Z,1.70
2023-01-01T16:06:20.936Z,2.35
2023-01-01T16:08:47.849Z,2.25
2023-01-01T16:11:14.941Z,2.22
2023-01-01T16:13:45.198Z,2.08
2023-01-01T16:16:27.850Z,3.00
2023-01-01T16:18:56.943Z,1.88
2023-01-01T16:21:39.617Z,2.28
2023-01-01T16:24:12.420Z,1.35
2023-01-01T16:26:41.269Z,1.35
2023-01-01T16:29:10.391Z,1.05
2023-01-01T16:31:39.971Z,1.65
2023-01-01T16:34:07.363Z,1.65
2023-01-01T16:36:34.443Z,1.10
2023-01-01T16:39:01.443Z,1.00
2023-01-01T16:41:30.878Z,1.25
2023-01-01T16:43:58.104Z,1.92
2023-01-01T16:46:28.081Z,1.30
2023-01-01T16:48:55.120Z,0.80
2023-01-01T16:51:27.302Z,0.82
2023-01-01T16:53:54.374Z,1.73
2023-01-01T16:56:21.440Z,1.50
2023-01-01T16:58:50.108Z,1.67
2023-01-01T17:01:23.524Z,2.00
2023-01-01T17:03:53.004Z,1.88
2023-01-01T17:06:19.995Z,1.90
2023-01-01T17:08:49.466Z,1.70
2023-01-01T17:11:17.248Z,1.88
2023-01-01T17:13:45.161Z,1.58
2023-01-01T17:16:12.505Z,1.30
2023-01-01T17:21:29.255Z,2.13
2023-01-01T17:23:56.220Z,1.73
2023-01-01T17:26:34.045Z,1.80
2023-01-01T17:29:03.150Z,1.45
2023-01-01T17:31:30.331Z,1.75
2023-01-01T17:33:59.885Z,1.65
2023-01-01T17:36:29.450Z,2.20
2023-01-01T17:38:59.534Z,1.98
2023-01-01T17:41:29.692Z,1.02
2023-01-01T17:43:56.792Z,2.55
2023-01-01T17:46:27.050Z,1.52
2023-01-01T17:48:54.263Z,1.77
2023-01-01T17:51:21.365Z,2.53
2023-01-01T17:53:50.755Z,2.00
2023-01-01T17:56:18.567Z,1.63
2023-01-01T17:58:46.195Z,1.42
2023-01-01T18:01:22.582Z,1.85
2023-01-01T18:04:03.574Z,1.63
2023-01-01T18:06:31.049Z,1.75
2023-01-01T18:08:59.198Z,2.35
2023-01-01T18:11:31.656Z,1.35
2023-01-01T18:14:01.244Z,1.70
2023-01-01T18:16:28.541Z,1.85
2023-01-01T18:18:56.171Z,1.60
2023-01-01T18:21:23.976Z,2.95
2023-01-01T18:23:54.899Z,2.90
2023-01-01T18:26:22.998Z,2.78
2023-01-01T18:28:53.847Z,2.20
2023-01-01T18:31:21.113Z,2.45
2023-01-01T18:33:48.179Z,1.95
2023-01-01T18:36:17.332Z,3.50
2023-01-01T18:38:45.981Z,3.33
2023-01-01T18:41:18.788Z,2.20
2023-01-01T18:43:45.653Z,2.25
2023-01-01T18:46:12.887Z,3.40
2023-01-01T18:48:40.719Z,2.60
2023-01-01T18:51:23.361Z,1.60
2023-01-01T18:53:55.816Z,0.90
2023-01-01T18:56:33.652Z,1.23
2023-01-01T18:59:00.642Z,1.50
2023-01-01T19:01:28.898Z,0.95
2023-01-01T19:03:56.766Z,1.27
2023-01-01T19:06:27.659Z,1.25
2023-01-01T19:09:17.689Z,1.10
2023-01-01T19:11:44.650Z,0.73
2023-01-01T19:14:22.177Z,1.00
2023-01-01T19:16:50.855Z,1.13
2023-01-01T19:19:25.448Z,0.75
2023-01-01T19:22:31.127Z,1.13
2023-01-01T19:24:58.023Z,0.80
2023-01-01T19:27:25.124Z,0.85
2023-01-01T19:29:52.300Z,1.67
2023-01-01T19:32:20.907Z,2.08
2023-01-01T19:34:47.875Z,1.15
2023-01-01T19:37:14.914Z,1.08
2023-01-01T19:39:42.654Z,1.10
2023-01-01T19:42:10.542Z,1.30
2023-01-01T19:44:37.606Z,1.27
2023-01-01T19:47:05.141Z,1.02
2023-01-01T19:49:32.443Z,0.98
2023-01-01T19:51:59.486Z,1.25
2023-01-01T19:54:26.585Z,1.88
2023-01-01T19:56:53.539Z,1.70
2023-01-01T19:59:20.442Z,1.83
2023-01-01T20:02:44.662Z,2.28
2023-01-01T20:05:09.326Z,1.33
2023-01-01T20:07:36.409Z,1.55
2023-01-01T20:10:03.675Z,1.38
2023-01-01T20:12:30.719Z,1.25
2023-01-01T20:14:57.702Z,1.15
2023-01-01T20:17:24.790Z,1.60
2023-01-01T20:19:51.913Z,1.38
2023-01-01T20:22:19.007Z,1.42
2023-01-01T20:24:47.633Z,1.20
2023-01-01T20:27:17.875Z,1.42
2023-01-01T20:29:44.979Z,1.60
2023-01-01T20:32:15.944Z,1.40
2023-01-01T20:34:45.832Z,1.67
2023-01-01T20:37:31.585Z,1.13
2023-01-01T20:40:01.119Z,1.60
2023-01-01T20:42:36.992Z,1.88
2023-01-01T20:45:12.571Z,1.55
2023-01-01T20:47:42.617Z,1.20
2023-01-01T20:50:10.073Z,1.52
2023-01-01T20:52:37.128Z,1.45
2023-01-01T20:55:16.675Z,1.13
2023-01-01T20:57:46.280Z,0.75
2023-01-01T21:00:17.227Z,1.15
2023-01-01T21:02:44.590Z,1.20
2023-01-01T21:05:16.929Z,1.33
2023-01-01T21:07:51.359Z,1.60
2023-01-01T21:10:22.308Z,1.40
2023-01-01T21:12:56.838Z,1.00
2023-01-01T21:15:26.630Z,1.10
2023-01-01T21:17:53.705Z,1.40
2023-01-01T21:20:20.735Z,0.95
2023-01-01T21:22:48.015Z,0.95
2023-01-01T21:28:17.191Z,1.25
2023-01-01T21:30:51.098Z,1.52
2023-01-01T21:35:50.515Z,1.73
2023-01-01T21:38:20.177Z,1.63
2023-01-01T21:40:51.873Z,1.27
2023-01-01T21:43:27.291Z,1.00
2023-01-01T21:45:56.615Z,0.80
2023-01-01T21:48:49.034Z,0.50
2023-01-01T21:51:20.995Z,0.90
2023-01-01T21:53:47.928Z,0.60
2023-01-01T21:56:40.853Z,0.55
2023-01-01T21:59:27.146Z,0.40
2023-01-01T22:02:07.130Z,0.57
2023-01-01T22:04:50.315Z,0.43
2023-01-01T22:10:32.900Z,0.60
2023-01-01T22:13:00.550Z,0.82
2023-01-01T22:15:31.967Z,0.70
2023-01-01T22:18:12.270Z,0.57
2023-01-01T22:20:43.928Z,0.55
2023-01-01T22:26:12.148Z,0.50
2023-01-01T22:28:42.709Z,0.70
2023-01-01T22:31:26.915Z,0.90
2023-01-01T22:36:26.683Z,1.15
2023-01-01T22:39:04.485Z,0.70
2023-01-01T22:41:34.028Z,0.90
2023-01-01T22:44:02.696Z,1.10
2023-01-01T22:46:37.314Z,1.05
2023-01-01T22:49:24.104Z,1.00
2023-01-01T22:51:54.718Z,1.05
2023-01-01T22:54:21.709Z,1.23
2023-01-01T22:56:57.306Z,1.70
2023-01-01T22:59:24.172Z,1.35
2023-01-01T23:01:51.171Z,1.17
2023-01-01T23:04:18.147Z,1.38
2023-01-01T23:06:45.002Z,1.30
2023-01-01T23:09:12.572Z,1.17
2023-01-01T23:11:39.723Z,1.20
2023-01-01T23:14:25.598Z,1.10
2023-01-01T23:16:52.519Z,0.98
2023-01-01T23:19:21.707Z,0.85
2023-01-01T23:21:50.757Z,1.17
2023-01-01T23:24:21.082Z,1.50
2023-01-01T23:26:54.013Z,0.90
2023-01-01T23:29:21.032Z,1.60
2023-01-01T23:31:48.198Z,1.08
2023-01-01T23:34:15.270Z,1.52
2023-01-01T23:36:45.329Z,1.55
2023-01-01T23:39:12.279Z,1.10
2023-01-01T23:41:53.603Z,1.20
2023-01-01T23:44:20.570Z,1.10
2023-01-01T23:46:47.617Z,1.35
2023-01-01T23:49:18.304Z,1.48
2023-01-01T23:51:50.753Z,1.10
2023-01-01T23:54:17.750Z,1.02
2023-01-01T23:56:44.651Z,1.23
2023-01-01T23:59:12.077Z,1.35
